createdAt,value
2022-12-04T00:01:08.199Z,56.80
2022-12-04T00:03:35.228Z,55.80
2022-12-04T00:06:07.164Z,56.60
2022-12-04T00:08:34.316Z,55.80
2022-12-04T00:11:01.571Z,55.90
2022-12-04T00:13:28.452Z,55.60
2022-12-04T00:15:55.304Z,56.20
2022-12-04T00:18:22.263Z,56.20
2022-12-04T00:20:49.840Z,57.10
2022-12-04T00:23:16.849Z,56.50
2022-12-04T00:25:48.580Z,56.20
2022-12-04T00:28:17.233Z,56.40
2022-12-04T00:30:47.146Z,56.30
2022-12-04T00:33:14.167Z,56.10
2022-12-04T00:35:41.132Z,56.10
2022-12-04T00:38:08.083Z,56.00
2022-12-04T00:40:34.929Z,56.40
2022-12-04T00:43:01.860Z,56.80
2022-12-04T00:45:28.754Z,56.70
2022-12-04T00:47:55.698Z,56.40
2022-12-04T00:50:22.572Z,56.40
2022-12-04T00:52:49.408Z,56.90
2022-12-04T00:55:16.282Z,57.00
2022-12-04T00:57:43.171Z,56.70
2022-12-04T01:00:10.330Z,57.10
2022-12-04T01:02:37.275Z,56.90
2022-12-04T01:05:04.481Z,56.70
2022-12-04T01:07:31.431Z,57.30
2022-12-04T01:09:58.340Z,56.50
2022-12-04T01:12:25.321Z,57.70
2022-12-04T01:14:52.279Z,57.00
2022-12-04T01:17:19.185Z,56.80
2022-12-04T01:19:46.026Z,56.20
2022-12-04T01:22:12.882Z,57.20
2022-12-04T01:24:40.536Z,57.50
2022-12-04T01:27:07.888Z,57.60
2022-12-04T01:29:34.826Z,57.70
2022-12-04T01:32:01.848Z,58.20
2022-12-04T01:34:28.702Z,57.00
2022-12-04T01:36:55.498Z,57.10
2022-12-04T01:39:22.420Z,56.90
2022-12-04T01:41:49.466Z,58.60
2022-12-04T01:44:23.466Z,57.90
2022-12-04T01:46:58.525Z,56.90
2022-12-04T01:49:47.989Z,57.30
2022-12-04T01:52:26.609Z,56.50
2022-12-04T01:54:59.125Z,57.00
2022-12-04T01:57:29.151Z,57.00
2022-12-04T02:00:00.423Z,57.50
2022-12-04T02:02:34.699Z,57.30
2022-12-04T02:05:12.139Z,57.30
2022-12-04T02:07:41.234Z,57.60
2022-12-04T02:10:09.982Z,57.40
2022-12-04T02:13:10.766Z,57.70
2022-12-04T02:15:58.940Z,57.40
2022-12-04T02:18:41.100Z,57.20
2022-12-04T02:21:19.575Z,57.30
2022-12-04T02:24:22.283Z,57.30
2022-12-04T02:27:18.071Z,57.20
2022-12-04T02:29:44.885Z,56.90
2022-12-04T02:32:24.036Z,58.30
2022-12-04T02:34:59.850Z,58.80
2022-12-04T02:37:37.727Z,57.20
2022-12-04T02:40:35.358Z,57.00
2022-12-04T02:43:12.692Z,58.50
2022-12-04T02:45:45.343Z,57.70
2022-12-04T02:48:16.463Z,57.90
2022-12-04T02:50:44.249Z,57.50
2022-12-04T02:53:16.478Z,58.20
2022-12-04T02:55:53.900Z,58.30
2022-12-04T02:58:47.030Z,57.90
2022-12-04T03:01:21.684Z,58.30
2022-12-04T03:03:52.282Z,59.00
2022-12-04T03:06:21.998Z,58.20
2022-12-04T03:08:54.792Z,58.80
2022-12-04T03:11:21.728Z,57.90
2022-12-04T03:13:54.836Z,58.70
2022-12-04T03:16:34.957Z,57.80
2022-12-04T03:19:07.521Z,57.80
2022-12-04T03:21:40.818Z,57.60
2022-12-04T03:24:10.725Z,58.30
2022-12-04T03:26:46.520Z,58.10
2022-12-04T03:29:28.017Z,58.30
2022-12-04T03:32:16.140Z,58.20
2022-12-04T03:34:58.154Z,58.10
2022-12-04T03:37:30.783Z,57.40
2022-12-04T03:40:04.026Z,57.40
2022-12-04T03:42:42.422Z,57.60
2022-12-04T03:45:40.156Z,57.90
2022-12-04T03:48:22.681Z,57.60
2022-12-04T03:51:01.340Z,57.50
2022-12-04T03:53:41.773Z,57.80
2022-12-04T03:56:16.469Z,57.80
2022-12-04T03:58:48.815Z,58.20
2022-12-04T04:01:20.320Z,57.30
2022-12-04T04:03:50.731Z,57.60
2022-12-04T04:06:37.781Z,58.30
2022-12-04T04:09:14.363Z,58.50
2022-12-04T04:12:06.672Z,57.20
2022-12-04T04:15:03.635Z,57.20
2022-12-04T04:17:53.382Z,57.50
2022-12-04T04:20:53.593Z,57.50
2022-12-04T04:23:40.466Z,57.30
2022-12-04T04:26:08.903Z,57.90
2022-12-04T04:28:41.090Z,57.40
2022-12-04T04:31:26.070Z,57.70
2022-12-04T04:34:07.676Z,57.70
2022-12-04T04:36:59.435Z,57.80
2022-12-04T04:39:40.267Z,57.50
2022-12-04T04:42:17.669Z,58.60
2022-12-04T04:45:05.894Z,57.40
2022-12-04T04:47:58.479Z,57.00
2022-12-04T04:50:25.758Z,57.20
2022-12-04T04:52:58.907Z,57.70
2022-12-04T04:55:26.483Z,57.30
2022-12-04T04:57:53.274Z,58.10
2022-12-04T05:00:23.114Z,57.20
2022-12-04T05:02:50.473Z,57.50
2022-12-04T05:05:18.146Z,57.80
2022-12-04T05:07:45.026Z,58.60
2022-12-04T05:10:12.032Z,57.70
2022-12-04T05:12:38.914Z,57.50
2022-12-04T05:15:06.241Z,56.70
2022-12-04T05:17:35.559Z,57.40
2022-12-04T05:20:04.002Z,57.30
2022-12-04T05:22:33.511Z,57.60
2022-12-04T05:25:01.401Z,57.60
2022-12-04T05:27:30.254Z,58.10
2022-12-04T05:29:58.516Z,57.40
2022-12-04T05:32:27.766Z,57.60
2022-12-04T05:34:55.499Z,57.80
2022-12-04T05:37:22.711Z,58.00
2022-12-04T05:39:49.562Z,57.80
2022-12-04T05:42:16.371Z,58.40
2022-12-04T05:44:43.221Z,57.90
2022-12-04T05:47:10.238Z,58.00
2022-12-04T05:49:37.342Z,57.70
2022-12-04T05:52:05.961Z,57.60
2022-12-04T05:54:33.179Z,56.90
2022-12-04T05:57:00.034Z,58.00
2022-12-04T05:59:27.037Z,57.20
2022-12-04T06:01:53.970Z,57.60
2022-12-04T06:04:20.935Z,57.90
2022-12-04T06:06:47.915Z,58.00
2022-12-04T06:09:14.791Z,58.30
2022-12-04T06:11:42.906Z,57.50
2022-12-04T06:14:13.484Z,58.40
2022-12-04T06:16:43.159Z,58.20
2022-12-04T06:19:17.408Z,57.70
2022-12-04T06:21:46.242Z,58.10
2022-12-04T06:24:15.930Z,57.70
2022-12-04T06:27:04.115Z,57.90
2022-12-04T06:29:29.828Z,58.30
2022-12-04T06:31:56.842Z,57.80
2022-12-04T06:34:23.851Z,57.50
2022-12-04T06:36:50.733Z,58.40
2022-12-04T06:39:19.149Z,57.60
2022-12-04T06:41:47.579Z,57.60
2022-12-04T06:44:15.618Z,57.30
2022-12-04T06:46:46.768Z,57.80
2022-12-04T06:49:14.806Z,58.60
2022-12-04T06:51:41.899Z,58.00
2022-12-04T06:54:10.372Z,58.10
2022-12-04T06:56:37.365Z,57.30
2022-12-04T06:59:05.029Z,57.10
2022-12-04T07:01:34.216Z,57.80
2022-12-04T07:04:03.936Z,58.00
2022-12-04T07:06:36.221Z,57.30
2022-12-04T07:09:16.404Z,57.70
2022-12-04T07:11:44.519Z,57.90
2022-12-04T07:14:13.013Z,57.10
2022-12-04T07:16:42.203Z,57.70
2022-12-04T07:19:14.152Z,57.90
2022-12-04T07:21:42.319Z,57.90
2022-12-04T07:24:13.268Z,57.70
2022-12-04T07:26:40.152Z,57.50
2022-12-04T07:29:07.197Z,58.00
2022-12-04T07:31:34.115Z,57.70
2022-12-04T07:34:00.994Z,57.50
2022-12-04T07:36:27.978Z,57.40
2022-12-04T07:38:56.319Z,57.60
2022-12-04T07:41:23.929Z,56.80
2022-12-04T07:43:50.952Z,56.80
2022-12-04T07:46:23.675Z,57.80
2022-12-04T07:48:50.781Z,57.70
2022-12-04T07:51:22.645Z,57.00
2022-12-04T07:53:51.576Z,57.40
2022-12-04T07:56:19.238Z,57.30
2022-12-04T07:58:48.372Z,57.00
2022-12-04T08:01:23.274Z,58.00
2022-12-04T08:03:52.776Z,57.10
2022-12-04T08:06:22.145Z,57.40
2022-12-04T08:08:49.973Z,57.50
2022-12-04T08:11:20.172Z,56.50
2022-12-04T08:13:47.061Z,57.40
2022-12-04T08:16:14.787Z,57.70
2022-12-04T08:18:46.512Z,56.10
2022-12-04T08:21:16.290Z,58.00
2022-12-04T08:23:44.058Z,57.80
2022-12-04T08:26:12.167Z,58.50
2022-12-04T08:28:39.960Z,58.80
2022-12-04T08:31:10.755Z,58.20
2022-12-04T08:33:37.936Z,59.10
2022-12-04T08:36:09.888Z,58.80
2022-12-04T08:38:37.221Z,58.70
2022-12-04T08:41:06.737Z,58.90
2022-12-04T08:43:33.999Z,59.10
2022-12-04T08:46:03.483Z,58.60
2022-12-04T08:48:31.274Z,60.60
2022-12-04T08:50:58.315Z,59.10
2022-12-04T08:53:25.583Z,60.20
2022-12-04T08:55:53.188Z,59.60
2022-12-04T08:58:20.418Z,59.90
2022-12-04T09:00:47.707Z,59.70
2022-12-04T09:03:16.990Z,59.80
2022-12-04T09:05:46.018Z,62.10
2022-12-04T09:08:17.818Z,60.20
2022-12-04T09:10:45.048Z,60.10
2022-12-04T09:13:11.981Z,59.20
2022-12-04T09:15:40.409Z,58.80
2022-12-04T09:18:08.434Z,59.20
2022-12-04T09:20:35.769Z,59.20
2022-12-04T09:23:05.005Z,59.40
2022-12-04T09:25:36.047Z,59.30
2022-12-04T09:28:03.390Z,59.00
2022-12-04T09:30:30.678Z,59.20
2022-12-04T09:32:57.597Z,59.60
2022-12-04T09:35:24.465Z,60.50
2022-12-04T09:37:51.389Z,60.00
2022-12-04T09:40:37.598Z,59.90
2022-12-04T09:43:30.724Z,59.70
2022-12-04T09:46:08.966Z,58.80
2022-12-04T09:48:39.911Z,59.30
2022-12-04T09:51:16.627Z,59.40
2022-12-04T09:54:08.160Z,59.60
2022-12-04T09:56:35.585Z,59.30
2022-12-04T09:59:17.101Z,59.50
2022-12-04T10:01:52.064Z,61.10
2022-12-04T10:04:19.355Z,59.50
2022-12-04T10:06:57.882Z,59.50
2022-12-04T10:09:31.648Z,60.30
2022-12-04T10:12:25.360Z,60.00
2022-12-04T10:15:07.726Z,59.20
2022-12-04T10:17:53.244Z,59.30
2022-12-04T10:20:44.238Z,59.10
2022-12-04T10:23:42.846Z,57.70
2022-12-04T10:26:15.875Z,57.20
2022-12-04T10:28:53.513Z,58.10
2022-12-04T10:31:23.788Z,58.10
2022-12-04T10:34:20.870Z,58.70
2022-12-04T10:36:53.099Z,58.20
2022-12-04T10:39:37.549Z,58.60
2022-12-04T10:42:22.775Z,58.60
2022-12-04T10:44:49.666Z,58.70
2022-12-04T10:47:16.791Z,58.20
2022-12-04T10:49:43.658Z,59.40
2022-12-04T10:52:13.082Z,58.90
2022-12-04T10:54:45.239Z,58.60
2022-12-04T10:57:13.987Z,59.00
2022-12-04T10:59:50.874Z,57.90
2022-12-04T11:02:28.209Z,58.20
2022-12-04T11:04:57.171Z,58.30
2022-12-04T11:07:29.260Z,58.30
2022-12-04T11:10:37.711Z,58.80
2022-12-04T11:13:17.265Z,57.40
2022-12-04T11:15:50.167Z,58.60
2022-12-04T11:18:23.278Z,58.40
2022-12-04T11:21:01.600Z,58.50
2022-12-04T11:23:33.649Z,58.60
2022-12-04T11:26:05.850Z,58.30
2022-12-04T11:28:43.135Z,58.10
2022-12-04T11:31:16.616Z,57.70
2022-12-04T11:33:47.878Z,58.40
2022-12-04T11:36:28.716Z,58.40
2022-12-04T11:39:04.634Z,57.20
2022-12-04T11:41:33.228Z,58.20
2022-12-04T11:44:00.977Z,57.10
2022-12-04T11:46:31.441Z,58.20
2022-12-04T11:48:58.622Z,57.50
2022-12-04T11:51:50.421Z,57.90
2022-12-04T11:54:33.952Z,57.10
2022-12-04T11:57:19.011Z,57.70
2022-12-04T12:00:09.714Z,57.10
2022-12-04T12:02:54.544Z,57.80
2022-12-04T12:05:33.504Z,57.20
2022-12-04T12:08:23.059Z,57.30
2022-12-04T12:10:58.809Z,56.10
2022-12-04T12:13:47.132Z,56.70
2022-12-04T12:16:45.769Z,57.90
2022-12-04T12:19:31.537Z,58.00
2022-12-04T12:22:16.851Z,57.00
2022-12-04T12:25:09.571Z,58.00
2022-12-04T12:27:36.509Z,57.60
2022-12-04T12:30:15.609Z,58.20
2022-12-04T12:33:00.677Z,58.50
2022-12-04T12:35:33.253Z,57.20
2022-12-04T12:38:05.386Z,57.40
2022-12-04T12:40:32.272Z,57.10
2022-12-04T12:43:22.247Z,57.90
2022-12-04T12:45:52.197Z,58.40
2022-12-04T12:48:40.564Z,58.60
2022-12-04T12:51:31.965Z,59.40
2022-12-04T12:54:22.738Z,58.50
2022-12-04T12:56:56.957Z,58.20
2022-12-04T12:59:27.549Z,57.40
2022-12-04T13:02:08.519Z,58.30
2022-12-04T13:04:40.310Z,57.60
2022-12-04T13:07:20.706Z,57.40
2022-12-04T13:10:02.875Z,57.70
2022-12-04T13:12:34.612Z,57.00
2022-12-04T13:15:01.561Z,57.50
2022-12-04T13:17:35.136Z,58.30
2022-12-04T13:20:10.220Z,57.20
2022-12-04T13:23:12.602Z,57.40
2022-12-04T13:25:51.193Z,57.00
2022-12-04T13:28:42.534Z,57.90
2022-12-04T13:31:20.392Z,57.30
2022-12-04T13:33:53.237Z,58.20
2022-12-04T13:36:28.863Z,57.20
2022-12-04T13:39:07.434Z,58.10
2022-12-04T13:41:37.797Z,55.80
2022-12-04T13:44:14.741Z,55.00
2022-12-04T13:47:17.278Z,56.40
2022-12-04T13:49:46.122Z,57.60
2022-12-04T13:52:41.547Z,57.40
2022-12-04T13:55:25.406Z,56.50
2022-12-04T13:58:11.940Z,56.40
2022-12-04T14:00:43.710Z,55.60
2022-12-04T14:03:29.826Z,56.90
2022-12-04T14:05:57.004Z,56.20
2022-12-04T14:08:28.432Z,57.00
2022-12-04T14:11:03.140Z,56.50
2022-12-04T14:13:54.668Z,57.10
2022-12-04T14:16:26.784Z,56.80
2022-12-04T14:18:59.572Z,57.20
2022-12-04T14:21:37.786Z,56.80
2022-12-04T14:24:30.725Z,56.60
2022-12-04T14:27:12.283Z,56.30
2022-12-04T14:29:52.765Z,56.90
2022-12-04T14:32:25.451Z,57.40
2022-12-04T14:34:53.490Z,57.50
2022-12-04T14:37:37.554Z,57.30
2022-12-04T14:40:07.568Z,57.60
2022-12-04T14:42:38.363Z,57.80
2022-12-04T14:45:18.753Z,57.60
2022-12-04T14:48:04.071Z,56.60
2022-12-04T14:51:03.145Z,56.70
2022-12-04T14:53:57.277Z,57.20
2022-12-04T14:56:45.598Z,57.70
2022-12-04T14:59:21.926Z,58.10
2022-12-04T15:01:50.779Z,58.20
2022-12-04T15:04:32.863Z,57.90
2022-12-04T15:07:00.861Z,56.90
2022-12-04T15:09:47.478Z,59.00
2022-12-04T15:12:35.380Z,58.40
2022-12-04T15:15:25.058Z,58.50
2022-12-04T15:17:57.804Z,58.30
2022-12-04T15:20:25.376Z,58.10
2022-12-04T15:22:57.388Z,59.10
2022-12-04T15:25:28.051Z,58.60
2022-12-04T15:28:05.880Z,58.10
2022-12-04T15:30:34.932Z,58.00
2022-12-04T15:33:02.098Z,57.60
2022-12-04T15:35:32.845Z,58.50
2022-12-04T15:38:00.530Z,58.50
2022-12-04T15:40:29.484Z,58.50
2022-12-04T15:43:13.792Z,59.00
2022-12-04T15:45:41.551Z,58.30
2022-12-04T15:48:08.490Z,58.80
2022-12-04T15:50:35.747Z,58.50
2022-12-04T15:53:05.462Z,57.50
2022-12-04T15:55:53.695Z,56.80
2022-12-04T15:58:22.858Z,58.10
2022-12-04T16:01:02.602Z,57.60
2022-12-04T16:03:41.603Z,56.00
2022-12-04T16:06:18.208Z,56.90
2022-12-04T16:08:47.780Z,56.50
2022-12-04T16:11:20.537Z,54.70
2022-12-04T16:13:50.228Z,56.70
2022-12-04T16:16:20.577Z,56.00
2022-12-04T16:18:47.668Z,55.60
2022-12-04T16:21:17.793Z,55.30
2022-12-04T16:23:45.231Z,55.30
2022-12-04T16:26:14.740Z,55.70
2022-12-04T16:28:41.971Z,55.70
2022-12-04T16:31:13.179Z,55.40
2022-12-04T16:33:40.695Z,55.80
2022-12-04T16:36:10.210Z,56.20
2022-12-04T16:38:37.344Z,56.70
2022-12-04T16:41:12.952Z,57.10
2022-12-04T16:43:39.921Z,56.50
2022-12-04T16:46:11.860Z,56.80
2022-12-04T16:48:38.852Z,57.00
2022-12-04T16:51:05.815Z,56.40
2022-12-04T16:53:32.711Z,57.80
2022-12-04T16:55:59.601Z,57.40
2022-12-04T16:58:26.487Z,57.70
2022-12-04T17:00:56.289Z,57.60
2022-12-04T17:03:31.341Z,57.40
2022-12-04T17:06:00.357Z,56.90
2022-12-04T17:08:28.196Z,57.10
2022-12-04T17:10:55.076Z,58.10
2022-12-04T17:13:22.803Z,57.80
2022-12-04T17:15:49.829Z,57.30
2022-12-04T17:18:21.075Z,57.10
2022-12-04T17:20:48.598Z,57.80
2022-12-04T17:23:15.967Z,57.40
2022-12-04T17:25:42.810Z,58.00
2022-12-04T17:28:09.748Z,57.60
2022-12-04T17:30:38.931Z,57.50
2022-12-04T17:33:05.835Z,57.40
2022-12-04T17:35:32.703Z,57.90
2022-12-04T17:38:05.696Z,57.20
2022-12-04T17:40:34.056Z,57.70
2022-12-04T17:43:00.945Z,57.20
2022-12-04T17:45:28.720Z,56.40
2022-12-04T17:47:55.775Z,57.10
2022-12-04T17:50:22.848Z,57.20
2022-12-04T17:52:49.880Z,56.50
2022-12-04T17:55:16.789Z,56.80
2022-12-04T17:57:43.690Z,55.60
2022-12-04T18:00:11.150Z,56.60
2022-12-04T18:02:42.099Z,56.60
2022-12-04T18:05:09.826Z,57.50
2022-12-04T18:07:36.867Z,56.40
2022-12-04T18:10:04.140Z,57.20
2022-12-04T18:12:31.068Z,56.40
2022-12-04T18:14:58.298Z,57.90
2022-12-04T18:17:25.557Z,57.10
2022-12-04T18:19:52.512Z,56.10
2022-12-04T18:22:19.354Z,56.90
2022-12-04T18:24:46.281Z,57.60
2022-12-04T18:27:13.126Z,55.40
2022-12-04T18:29:41.551Z,56.20
2022-12-04T18:32:08.564Z,57.30
2022-12-04T18:34:35.506Z,58.60
2022-12-04T18:37:02.564Z,58.00
2022-12-04T18:39:29.478Z,58.30
2022-12-04T18:41:57.059Z,58.10
2022-12-04T18:44:24.238Z,57.90
2022-12-04T18:46:51.133Z,57.80
2022-12-04T18:49:17.961Z,57.20
2022-12-04T18:51:49.696Z,58.20
2022-12-04T18:54:23.193Z,58.90
2022-12-04T18:56:51.619Z,57.70
2022-12-04T18:59:21.965Z,58.70
2022-12-04T19:01:52.315Z,57.20
2022-12-04T19:04:21.059Z,57.30
2022-12-04T19:06:54.953Z,56.80
2022-12-04T19:10:02.058Z,56.70
2022-12-04T19:12:16.395Z,56.60
2022-12-04T19:14:43.212Z,56.90
2022-12-04T19:17:11.360Z,56.50
2022-12-04T19:19:38.241Z,56.20
2022-12-04T19:22:05.259Z,56.80
2022-12-04T19:24:32.340Z,56.70
2022-12-04T19:26:59.198Z,56.00
2022-12-04T19:29:26.224Z,56.50
2022-12-04T19:31:58.826Z,55.80
2022-12-04T19:34:26.773Z,56.60
2022-12-04T19:36:54.671Z,55.20
2022-12-04T19:39:21.529Z,55.90
2022-12-04T19:41:48.413Z,56.30
2022-12-04T19:44:47.438Z,56.70
2022-12-04T19:47:03.111Z,56.10
2022-12-04T19:49:30.058Z,57.30
2022-12-04T19:51:56.995Z,55.60
2022-12-04T19:54:24.637Z,55.80
2022-12-04T19:56:52.646Z,58.00
2022-12-04T19:59:20.541Z,57.70
2022-12-04T20:01:48.213Z,57.10
2022-12-04T20:04:15.869Z,57.30
2022-12-04T20:06:44.995Z,57.60
2022-12-04T20:09:16.257Z,57.90
2022-12-04T20:11:43.179Z,57.40
2022-12-04T20:14:10.370Z,58.00
2022-12-04T20:16:38.383Z,57.80
2022-12-04T20:19:07.427Z,57.30
2022-12-04T20:21:34.814Z,58.10
2022-12-04T20:24:04.594Z,58.00
2022-12-04T20:26:34.718Z,58.70
2022-12-04T20:29:02.106Z,58.20
2022-12-04T20:31:32.785Z,59.30
2022-12-04T20:34:01.879Z,59.60
2022-12-04T20:36:30.468Z,58.50
2022-12-04T20:38:59.041Z,59.00
2022-12-04T20:41:28.471Z,59.60
2022-12-04T20:43:56.316Z,58.40
2022-12-04T20:46:25.617Z,58.00
2022-12-04T20:48:53.652Z,58.10
2022-12-04T20:51:32.990Z,60.90
2022-12-04T20:54:01.430Z,61.30
2022-12-04T20:56:31.016Z,58.50
2022-12-04T20:59:00.007Z,56.50
2022-12-04T21:01:30.342Z,50.20
2022-12-04T21:03:59.244Z,50.90
2022-12-04T21:06:34.553Z,51.50
2022-12-04T21:09:07.255Z,52.70
2022-12-04T21:11:42.742Z,54.80
2022-12-04T21:14:36.711Z,55.80
2022-12-04T21:17:06.063Z,57.00
2022-12-04T21:19:33.122Z,58.10
2022-12-04T21:21:59.979Z,58.40
2022-12-04T21:24:26.892Z,58.80
2022-12-04T21:26:55.053Z,59.40
2022-12-04T21:29:22.302Z,59.80
2022-12-04T21:31:49.479Z,60.50
2022-12-04T21:34:17.513Z,59.60
2022-12-04T21:36:46.265Z,60.00
2022-12-04T21:39:14.389Z,60.50
2022-12-04T21:42:00.156Z,60.60
2022-12-04T21:44:27.566Z,60.70
2022-12-04T21:46:55.072Z,59.70
2022-12-04T21:49:22.764Z,59.60
2022-12-04T21:51:58.526Z,60.70
2022-12-04T21:54:27.975Z,61.20
2022-12-04T21:56:56.133Z,60.60
2022-12-04T21:59:24.395Z,61.20
2022-12-04T22:01:51.504Z,61.10
2022-12-04T22:04:18.505Z,61.60
2022-12-04T22:06:45.356Z,60.90
2022-12-04T22:09:13.061Z,61.10
2022-12-04T22:11:43.991Z,61.50
2022-12-04T22:14:11.933Z,62.30
2022-12-04T22:16:42.684Z,61.50
2022-12-04T22:19:12.035Z,60.80
2022-12-04T22:21:39.961Z,61.60
2022-12-04T22:24:07.413Z,62.60
2022-12-04T22:26:34.352Z,62.20
2022-12-04T22:29:03.164Z,61.30
2022-12-04T22:31:32.150Z,61.40
2022-12-04T22:34:01.468Z,62.50
2022-12-04T22:36:31.129Z,61.40
2022-12-04T22:39:09.446Z,61.40
2022-12-04T22:41:37.138Z,61.60
2022-12-04T22:44:04.337Z,61.50
2022-12-04T22:46:31.624Z,61.40
2022-12-04T22:48:59.443Z,62.10
2022-12-04T22:51:27.261Z,62.20
2022-12-04T22:53:56.906Z,62.60
2022-12-04T22:56:29.086Z,62.60
2022-12-04T22:58:57.976Z,62.30
2022-12-04T23:01:33.385Z,61.90
2022-12-04T23:04:01.441Z,61.90
2022-12-04T23:06:31.702Z,62.10
2022-12-04T23:09:07.993Z,61.70
2022-12-04T23:11:35.431Z,61.80
2022-12-04T23:14:04.849Z,62.00
2022-12-04T23:16:34.374Z,61.70
2022-12-04T23:19:01.343Z,61.50
2022-12-04T23:21:29.009Z,61.20
2022-12-04T23:23:57.002Z,61.70
2022-12-04T23:26:30.447Z,62.10
2022-12-04T23:28:57.840Z,61.90
2022-12-04T23:31:25.241Z,61.30
2022-12-04T23:33:52.119Z,61.50
2022-12-04T23:36:19.215Z,61.40
2022-12-04T23:38:46.809Z,61.50
2022-12-04T23:41:16.221Z,61.60
2022-12-04T23:43:44.006Z,60.80
2022-12-04T23:46:12.550Z,61.30
2022-12-04T23:48:41.027Z,61.60
2022-12-04T23:51:09.353Z,61.30
2022-12-04T23:53:36.792Z,61.40
2022-12-04T23:56:17.898Z,61.70
2022-12-04T23:58:46.038Z,60.80
